Time;durP1;ratioP1;P1;durP2;ratioP2;P2;SDS_P1;SDS_P2;PMS_P1;PMS_P2;Temp;Humidity;BMP_temperature;BMP_pressure;BME280_temperature;BME280_humidity;BME280_pressure;Samples;Min_cycle;Max_cycle;Signal;HPM_P1;HPM_P2
2023/03/20 00:01:32;;;;;;;12.70;7.75;;;8.10;99.90;;;;;;6242512;23;20039;-81
2023/03/20 00:03:57;;;;;;;10.82;8.57;;;8.20;99.90;;;;;;6216810;23;20023;-81
2023/03/20 00:06:26;;;;;;;11.57;7.95;;;8.20;99.90;;;;;;6244493;22;20016;-81
2023/03/20 00:08:53;;;;;;;11.52;7.90;;;8.10;99.90;;;;;;6242833;23;20071;-81
2023/03/20 00:11:30;;;;;;;13.23;8.95;;;8.30;99.90;;;;;;6242813;23;20091;-80
2023/03/20 00:13:58;;;;;;;12.20;8.13;;;8.10;99.90;;;;;;6217264;23;20009;-81
2023/03/20 00:16:30;;;;;;;12.55;8.40;;;8.10;99.90;;;;;;6244475;22;20022;-80
2023/03/20 00:18:57;;;;;;;10.30;8.23;;;8.10;99.90;;;;;;6242061;23;20035;-81
2023/03/20 00:21:23;;;;;;;12.85;9.18;;;8.10;99.90;;;;;;6242456;23;20008;-81
2023/03/20 00:23:48;;;;;;;12.73;8.68;;;8.10;99.90;;;;;;6217146;23;20010;-81
2023/03/20 00:26:18;;;;;;;15.02;8.70;;;8.10;99.90;;;;;;6244060;22;20020;-81
2023/03/20 00:28:48;;;;;;;14.50;9.05;;;8.10;99.90;;;;;;6242519;23;20016;-81
2023/03/20 00:31:25;;;;;;;14.70;8.70;;;8.20;99.90;;;;;;6243668;22;20012;-81
2023/03/20 00:33:57;;;;;;;17.67;8.85;;;8.00;99.90;;;;;;6217267;23;20026;-81
2023/03/20 00:36:23;;;;;;;12.88;8.95;;;8.10;99.90;;;;;;6244234;22;20012;-81
2023/03/20 00:38:50;;;;;;;12.00;7.47;;;8.00;99.90;;;;;;6244202;22;20012;-81
2023/03/20 00:41:24;;;;;;;16.15;8.73;;;8.00;99.90;;;;;;6216898;23;20342;-80
2023/03/20 00:43:57;;;;;;;13.00;8.90;;;8.00;99.90;;;;;;6243564;22;20510;-81
2023/03/20 00:46:23;;;;;;;12.15;8.57;;;8.10;99.90;;;;;;6243710;22;20012;-81
2023/03/20 00:48:49;;;;;;;13.50;8.32;;;8.40;99.90;;;;;;6216898;23;20443;-80
2023/03/20 00:51:15;;;;;;;12.50;8.35;;;8.00;99.90;;;;;;6241936;23;20377;-81
2023/03/20 00:53:41;;;;;;;14.20;8.55;;;8.00;99.90;;;;;;6216338;23;20335;-81
2023/03/20 00:56:29;;;;;;;14.60;8.23;;;8.00;99.90;;;;;;6216737;23;20016;-81
2023/03/20 00:58:55;;;;;;;18.42;9.00;;;8.00;99.90;;;;;;6243470;22;20446;-81
2023/03/20 01:01:20;;;;;;;13.35;7.80;;;8.00;99.90;;;;;;6243422;22;20015;-81
2023/03/20 01:03:46;;;;;;;14.57;8.90;;;8.20;99.90;;;;;;6241956;23;20020;-81
2023/03/20 01:06:12;;;;;;;12.70;8.00;;;8.00;99.90;;;;;;6242235;23;20299;-81
2023/03/20 01:08:38;;;;;;;15.10;7.30;;;8.00;99.90;;;;;;6216643;23;20008;-81
2023/03/20 01:11:04;;;;;;;17.05;8.20;;;8.10;99.90;;;;;;6242005;23;20360;-81
2023/03/20 01:13:31;;;;;;;13.55;7.75;;;8.00;99.90;;;;;;6241919;23;20462;-81
2023/03/20 01:15:57;;;;;;;13.55;7.68;;;8.00;99.90;;;;;;6241807;23;20087;-81
2023/03/20 01:18:25;;;;;;;14.05;8.35;;;8.10;99.90;;;;;;6242356;23;20008;-80
2023/03/20 01:20:51;;;;;;;16.35;8.35;;;8.00;99.90;;;;;;6243447;22;20012;-81
2023/03/20 01:23:18;;;;;;;13.48;8.30;;;8.00;99.90;;;;;;6216521;23;20083;-81
2023/03/20 01:25:44;;;;;;;12.75;7.70;;;8.00;99.90;;;;;;6241694;23;20012;-81
2023/03/20 01:28:17;;;;;;;14.10;9.30;;;8.00;99.90;;;;;;6241768;23;20008;-81
2023/03/20 01:30:43;;;;;;;14.75;8.98;;;8.00;99.90;;;;;;6241590;23;20079;-81
2023/03/20 01:33:14;;;;;;;14.70;8.82;;;8.00;99.90;;;;;;6241664;23;20012;-80
2023/03/20 01:35:39;;;;;;;14.85;8.90;;;8.00;99.90;;;;;;6241673;23;20008;-81
2023/03/20 01:38:12;;;;;;;17.55;9.20;;;8.00;99.90;;;;;;6241765;23;20035;-81
2023/03/20 01:41:11;;;;;;;17.05;8.38;;;7.90;99.90;;;;;;6242029;23;20012;-80
2023/03/20 01:43:36;;;;;;;15.75;9.35;;;8.00;99.90;;;;;;6240704;23;20014;-82
2023/03/20 01:46:18;;;;;;;18.15;9.43;;;8.00;99.90;;;;;;6241402;23;20087;-81
2023/03/20 01:48:49;;;;;;;21.17;9.93;;;8.00;99.90;;;;;;6243556;22;20044;-81
2023/03/20 01:51:16;;;;;;;17.75;10.32;;;8.00;99.90;;;;;;6243439;22;20073;-81
2023/03/20 01:53:44;;;;;;;16.70;10.32;;;8.00;99.90;;;;;;6241375;23;20157;-81
2023/03/20 01:56:12;;;;;;;17.02;9.82;;;8.10;99.90;;;;;;6241466;23;20083;-81
2023/03/20 01:58:43;;;;;;;18.63;9.95;;;8.00;99.90;;;;;;6242782;22;20100;-81
2023/03/20 02:01:11;;;;;;;16.15;10.57;;;7.90;99.90;;;;;;6241537;23;20016;-81
2023/03/20 02:03:44;;;;;;;19.05;10.27;;;8.00;99.90;;;;;;6241162;23;20016;-81
2023/03/20 02:06:10;;;;;;;;;;;8.00;99.90;;;;;;6242028;23;20012;-81
2023/03/20 02:08:47;;;;;;;17.90;10.90;;;7.90;99.90;;;;;;6216062;23;20326;-80
2023/03/20 02:11:15;;;;;;;23.33;11.43;;;8.00;99.90;;;;;;6241996;23;20008;-81
2023/03/20 02:13:42;;;;;;;22.70;10.35;;;7.90;99.90;;;;;;6242731;22;20316;-81
2023/03/20 02:16:11;;;;;;;18.10;11.85;;;8.20;99.90;;;;;;6241404;23;20326;-81
2023/03/20 02:18:38;;;;;;;23.52;11.45;;;7.90;99.90;;;;;;6267664;22;20039;-81
2023/03/20 02:21:43;;;;;;;20.95;10.55;;;7.90;99.90;;;;;;6241380;23;20066;-81
2023/03/20 02:24:44;;;;;;;23.25;11.50;;;7.90;99.90;;;;;;6241481;23;20035;-81
2023/03/20 02:27:24;;;;;;;23.08;10.35;;;8.00;99.90;;;;;;6208987;23;20116;-80
2023/03/20 02:30:19;;;;;;;18.80;10.40;;;8.00;99.90;;;;;;6185233;23;20371;-81
2023/03/20 02:33:04;;;;;;;19.50;10.18;;;8.00;99.90;;;;;;6184674;23;20013;-81
2023/03/20 02:36:09;;;;;;;22.15;11.27;;;8.00;99.90;;;;;;6210452;23;20051;-80
2023/03/20 02:38:53;;;;;;;21.88;11.23;;;8.00;99.90;;;;;;6184677;23;20012;-81
2023/03/20 02:41:35;;;;;;;22.95;10.52;;;8.00;99.90;;;;;;6185050;23;20108;-81
2023/03/20 02:44:28;;;;;;;18.10;9.75;;;8.00;99.90;;;;;;6184900;23;20087;-80
2023/03/20 02:47:19;;;;;;;19.80;10.38;;;8.00;99.90;;;;;;6184894;23;20017;-81
2023/03/20 02:49:56;;;;;;;24.85;11.95;;;8.00;99.90;;;;;;6199194;23;20024;-81
2023/03/20 02:52:40;;;;;;;25.70;10.27;;;8.00;99.90;;;;;;6184781;23;20009;-81
2023/03/20 02:55:32;;;;;;;22.13;11.45;;;8.00;99.90;;;;;;6184920;23;20013;-81
2023/03/20 02:58:24;;;;;;;22.65;12.65;;;8.00;99.90;;;;;;6184339;23;20008;-81
2023/03/20 03:01:13;;;;;;;23.58;11.23;;;8.00;99.90;;;;;;6207224;23;20095;-80
2023/03/20 03:04:03;;;;;;;23.75;13.23;;;8.00;99.90;;;;;;6171476;23;20126;-81
2023/03/20 03:06:31;;;;;;;19.10;12.48;;;8.00;99.90;;;;;;6241500;23;20087;-81
2023/03/20 03:09:23;;;;;;;24.27;13.38;;;8.20;99.90;;;;;;6216076;23;20012;-81
2023/03/20 03:11:55;;;;;;;23.73;12.93;;;8.00;99.90;;;;;;6186980;23;20012;-80
2023/03/20 03:14:40;;;;;;;22.25;13.38;;;8.00;99.90;;;;;;6241440;23;20063;-81
2023/03/20 03:17:07;;;;;;;28.17;14.25;;;8.00;99.90;;;;;;6217887;23;20118;-81
2023/03/20 03:19:35;;;;;;;22.02;13.77;;;8.00;99.90;;;;;;6243287;23;20051;-81
2023/03/20 03:22:01;;;;;;;21.70;12.80;;;8.00;99.90;;;;;;6243268;23;20019;-80
2023/03/20 03:24:31;;;;;;;22.35;13.23;;;8.00;99.90;;;;;;6243285;23;20012;-81
2023/03/20 03:27:00;;;;;;;23.80;13.27;;;8.00;99.90;;;;;;6217097;23;20015;-81
2023/03/20 03:29:36;;;;;;;25.08;14.32;;;8.00;99.90;;;;;;6243086;23;20047;-81
2023/03/20 03:32:05;;;;;;;24.73;14.68;;;8.00;99.90;;;;;;6245152;22;20050;-81
2023/03/20 03:34:32;;;;;;;24.63;14.32;;;8.00;99.90;;;;;;6217841;23;20046;-81
2023/03/20 03:37:01;;;;;;;26.38;14.82;;;8.00;99.90;;;;;;6244986;22;20085;-81
2023/03/20 03:39:45;;;;;;;26.88;14.13;;;8.00;99.90;;;;;;6217823;23;20113;-81
2023/03/20 03:42:36;;;;;;;20.40;14.10;;;8.00;99.90;;;;;;6217771;23;20076;-81
2023/03/20 03:45:23;;;;;;;23.27;14.82;;;8.00;99.90;;;;;;6211325;23;20023;-81
2023/03/20 03:48:07;;;;;;;23.63;14.40;;;8.00;99.90;;;;;;6186140;23;20012;-81
2023/03/20 03:50:55;;;;;;;22.95;14.57;;;8.00;99.90;;;;;;6186407;23;20094;-81
2023/03/20 03:53:29;;;;;;;24.70;14.05;;;8.10;99.90;;;;;;6186532;23;20051;-81
2023/03/20 03:55:59;;;;;;;24.95;13.98;;;8.30;99.90;;;;;;6185714;23;20095;-81
2023/03/20 03:58:28;;;;;;;22.15;13.60;;;7.90;99.90;;;;;;6186361;23;20045;-81
2023/03/20 04:00:56;;;;;;;21.45;13.93;;;8.00;99.90;;;;;;6186250;23;20514;-81
2023/03/20 04:03:27;;;;;;;21.67;13.18;;;8.00;99.90;;;;;;6185932;23;20083;-81
2023/03/20 04:05:56;;;;;;;22.52;14.00;;;8.00;99.90;;;;;;6186160;23;20017;-81
2023/03/20 04:08:22;;;;;;;19.00;13.43;;;8.00;99.90;;;;;;6186155;23;20054;-80
2023/03/20 04:10:47;;;;;;;20.58;12.43;;;8.00;99.90;;;;;;6185778;23;20087;-81
2023/03/20 04:13:15;;;;;;;20.33;12.40;;;8.00;99.90;;;;;;6186298;23;20238;-81
2023/03/20 04:15:41;;;;;;;20.48;12.40;;;8.20;99.90;;;;;;6161443;23;20044;-81
2023/03/20 04:18:12;;;;;;;18.73;12.63;;;8.00;99.90;;;;;;6161478;23;20044;-81
2023/03/20 04:20:38;;;;;;;20.38;12.32;;;8.10;99.90;;;;;;6186828;23;20040;-82
2023/03/20 04:23:06;;;;;;;20.23;12.70;;;8.00;99.90;;;;;;6215658;23;20008;-81
2023/03/20 04:25:32;;;;;;;22.55;13.57;;;8.00;99.90;;;;;;6244744;22;20058;-81
2023/03/20 04:27:58;;;;;;;22.25;13.15;;;8.00;99.90;;;;;;6219900;23;20122;-81
2023/03/20 04:30:23;;;;;;;18.65;12.23;;;8.00;99.90;;;;;;6221335;23;20454;-82
2023/03/20 04:32:49;;;;;;;18.50;12.50;;;8.00;99.90;;;;;;6248250;23;20047;-81
2023/03/20 04:35:15;;;;;;;19.10;11.52;;;8.00;99.90;;;;;;6247766;23;20046;-81
2023/03/20 04:37:40;;;;;;;20.63;12.30;;;8.00;99.90;;;;;;6243107;23;20040;-81
2023/03/20 04:40:07;;;;;;;22.35;12.45;;;8.00;99.90;;;;;;6217283;23;20171;-81
2023/03/20 04:42:32;;;;;;;19.27;12.63;;;8.00;99.90;;;;;;6242872;23;20012;-80
2023/03/20 04:44:58;;;;;;;18.92;11.80;;;8.00;99.90;;;;;;6242922;23;20008;-81
2023/03/20 04:47:24;;;;;;;19.15;11.15;;;8.00;99.90;;;;;;6217178;23;20018;-81
2023/03/20 04:49:49;;;;;;;20.63;11.90;;;8.00;99.90;;;;;;6242664;23;20012;-81
2023/03/20 04:52:15;;;;;;;19.77;11.63;;;8.00;99.90;;;;;;6241645;23;20012;-81
2023/03/20 04:54:41;;;;;;;19.77;12.00;;;8.00;99.90;;;;;;6243988;22;20028;-81
2023/03/20 04:57:06;;;;;;;19.05;10.40;;;7.90;99.90;;;;;;6242068;23;20019;-80
2023/03/20 04:59:32;;;;;;;15.77;10.82;;;7.90;99.90;;;;;;6216993;23;20058;-81
2023/03/20 05:02:01;;;;;;;17.88;10.70;;;7.90;99.90;;;;;;6216879;23;20008;-81
2023/03/20 05:04:26;;;;;;;17.08;11.00;;;7.90;99.90;;;;;;6242014;23;20065;-81
2023/03/20 05:06:52;;;;;;;15.30;10.02;;;7.90;99.90;;;;;;6241785;23;20016;-81
2023/03/20 05:09:18;;;;;;;13.23;9.80;;;7.90;99.90;;;;;;6216876;23;20108;-81
2023/03/20 05:11:43;;;;;;;17.60;10.68;;;7.90;99.90;;;;;;6242263;23;20091;-81
2023/03/20 05:14:10;;;;;;;20.20;9.82;;;7.90;99.90;;;;;;6242161;23;20008;-80
2023/03/20 05:16:37;;;;;;;19.15;10.45;;;7.90;99.90;;;;;;6242371;23;20179;-81
2023/03/20 05:19:03;;;;;;;19.50;9.70;;;7.90;99.90;;;;;;6242103;23;20095;-81
2023/03/20 05:21:28;;;;;;;16.08;9.95;;;7.90;99.90;;;;;;6241599;23;20330;-80
2023/03/20 05:23:54;;;;;;;17.23;9.73;;;7.90;99.90;;;;;;6242460;23;20342;-81
2023/03/20 05:26:20;;;;;;;18.40;10.65;;;7.90;99.90;;;;;;6241648;23;20050;-80
2023/03/20 05:28:45;;;;;;;19.10;10.60;;;7.90;99.90;;;;;;6216981;23;20012;-80
2023/03/20 05:31:11;;;;;;;15.10;10.27;;;7.90;99.90;;;;;;6244057;22;20014;-81
2023/03/20 05:33:40;;;;;;;19.63;11.13;;;7.90;99.90;;;;;;6242200;23;20012;-81
2023/03/20 05:36:06;;;;;;;18.35;9.50;;;7.90;99.90;;;;;;6240322;23;20015;-81
2023/03/20 05:38:32;;;;;;;15.98;9.85;;;7.90;99.90;;;;;;6237630;23;20018;-81
2023/03/20 05:40:59;;;;;;;16.98;9.73;;;7.90;99.90;;;;;;6240149;23;20407;-80
2023/03/20 05:43:27;;;;;;;17.38;10.48;;;7.90;99.90;;;;;;6216108;23;20016;-80
2023/03/20 05:45:55;;;;;;;16.45;10.55;;;7.80;99.90;;;;;;6242859;22;20020;-79
2023/03/20 05:48:21;;;;;;;21.73;11.13;;;7.80;99.90;;;;;;6216142;23;20442;-81
2023/03/20 05:50:46;;;;;;;15.88;10.35;;;7.90;99.90;;;;;;6239775;23;20015;-79
2023/03/20 05:53:15;;;;;;;20.13;11.52;;;7.90;99.90;;;;;;6215365;23;20074;-79
2023/03/20 05:55:43;;;;;;;18.02;12.02;;;7.90;99.90;;;;;;6241240;23;20398;-81
2023/03/20 05:58:10;;;;;;;19.83;12.55;;;7.90;99.90;;;;;;6241870;23;20012;-81
2023/03/20 06:00:36;;;;;;;20.27;11.20;;;7.90;99.90;;;;;;6215128;23;20031;-80
2023/03/20 06:03:02;;;;;;;18.27;12.43;;;7.90;99.90;;;;;;6255421;22;20034;-80
2023/03/20 06:05:28;;;;;;;18.90;12.88;;;7.90;99.90;;;;;;6245910;22;20016;-81
2023/03/20 06:07:53;;;;;;;19.63;12.30;;;7.90;99.90;;;;;;6246045;22;20414;-80
2023/03/20 06:10:19;;;;;;;19.75;12.80;;;8.40;99.90;;;;;;6246611;22;20065;-81
2023/03/20 06:12:45;;;;;;;21.25;12.90;;;7.90;99.90;;;;;;6246860;22;20011;-81
2023/03/20 06:15:11;;;;;;;22.20;13.38;;;7.90;99.90;;;;;;6247060;22;20079;-81
2023/03/20 06:17:37;;;;;;;23.38;14.02;;;8.50;99.90;;;;;;6246753;22;20027;-80
2023/03/20 06:20:03;;;;;;;20.13;13.13;;;7.90;99.90;;;;;;6273203;22;20046;-80
2023/03/20 06:22:29;;;;;;;17.95;12.80;;;7.90;99.90;;;;;;6221708;22;20012;-80
2023/03/20 06:24:56;;;;;;;20.35;13.23;;;7.90;99.90;;;;;;6246689;22;20121;-80
2023/03/20 06:27:21;;;;;;;19.75;13.60;;;8.10;99.90;;;;;;6221127;22;20083;-80
2023/03/20 06:29:47;;;;;;;20.92;13.48;;;8.00;99.90;;;;;;6245632;22;20383;-80
2023/03/20 06:32:17;;;;;;;21.30;12.95;;;8.00;99.90;;;;;;6220506;22;20062;-80
2023/03/20 06:34:43;;;;;;;22.98;13.52;;;8.00;99.90;;;;;;6220508;22;20331;-80
2023/03/20 06:37:09;;;;;;;22.13;13.25;;;8.00;99.90;;;;;;6273279;22;20015;-80
2023/03/20 06:39:35;;;;;;;19.05;13.55;;;8.00;99.90;;;;;;6245346;22;20014;-80
2023/03/20 06:42:01;;;;;;;19.27;12.65;;;8.10;99.90;;;;;;6273150;22;20016;-80
2023/03/20 06:44:27;;;;;;;15.73;11.85;;;8.10;99.90;;;;;;6245973;22;20469;-80
2023/03/20 06:46:52;;;;;;;18.70;13.20;;;8.10;99.90;;;;;;6273347;22;20449;-80
2023/03/20 06:49:18;;;;;;;23.05;13.95;;;8.60;99.90;;;;;;6245003;22;20016;-80
2023/03/20 06:51:46;;;;;;;26.60;13.57;;;8.20;99.90;;;;;;6248158;22;20038;-81
2023/03/20 06:54:12;;;;;;;21.55;12.50;;;8.20;99.90;;;;;;6247030;22;20012;-80
2023/03/20 06:56:38;;;;;;;18.75;12.38;;;8.20;99.90;;;;;;6222410;22;20197;-81
2023/03/20 06:59:03;;;;;;;18.67;12.80;;;8.20;99.90;;;;;;6222929;22;20078;-80
2023/03/20 07:01:29;;;;;;;20.40;13.25;;;8.20;99.90;;;;;;6275975;22;20008;-80
2023/03/20 07:03:55;;;;;;;20.05;13.05;;;8.30;99.90;;;;;;6222400;22;20077;-81
2023/03/20 07:06:21;;;;;;;20.67;13.13;;;8.70;99.90;;;;;;6222670;22;20054;-80
2023/03/20 07:08:47;;;;;;;18.92;12.93;;;8.40;99.90;;;;;;6247379;22;20617;-79
2023/03/20 07:11:15;;;;;;;23.63;14.18;;;8.40;99.90;;;;;;6275018;22;20039;-79
2023/03/20 07:13:42;;;;;;;17.63;13.20;;;8.40;99.90;;;;;;6247560;22;20091;-79
2023/03/20 07:16:07;;;;;;;18.58;12.27;;;8.40;99.90;;;;;;6248308;22;20026;-80
2023/03/20 07:18:33;;;;;;;23.92;14.02;;;8.50;99.90;;;;;;6247250;22;20456;-80
2023/03/20 07:21:01;;;;;;;18.90;12.63;;;8.50;99.90;;;;;;6247954;22;20043;-79
2023/03/20 07:23:28;;;;;;;19.35;12.85;;;8.50;99.90;;;;;;6248229;22;20007;-79
2023/03/20 07:25:54;;;;;;;18.60;13.75;;;8.60;99.90;;;;;;6247983;22;20349;-80
2023/03/20 07:28:20;;;;;;;19.95;12.75;;;8.70;99.90;;;;;;6247708;22;20083;-80
2023/03/20 07:30:45;;;;;;;22.10;13.90;;;8.70;99.90;;;;;;6221721;22;20403;-80
2023/03/20 07:33:11;;;;;;;19.52;14.52;;;8.80;99.90;;;;;;6247294;22;20323;-80
2023/03/20 07:35:38;;;;;;;22.52;13.70;;;8.90;99.90;;;;;;6248263;22;20004;-80
2023/03/20 07:38:05;;;;;;;18.60;13.40;;;8.90;99.90;;;;;;6247508;22;20015;-81
2023/03/20 07:40:31;;;;;;;21.27;13.50;;;9.00;99.90;;;;;;6247427;22;20004;-81
2023/03/20 07:42:57;;;;;;;19.65;13.13;;;9.10;99.90;;;;;;6222590;22;20008;-80
2023/03/20 07:45:23;;;;;;;22.30;13.50;;;9.20;99.90;;;;;;6247413;22;20019;-79
2023/03/20 07:47:48;;;;;;;17.92;12.95;;;9.30;99.90;;;;;;6246373;22;20022;-81
2023/03/20 07:50:15;;;;;;;23.85;12.85;;;9.40;99.90;;;;;;6247510;22;20015;-80
2023/03/20 07:52:47;;;;;;;20.08;12.82;;;9.50;99.90;;;;;;6274124;22;20027;-80
2023/03/20 07:55:14;;;;;;;24.90;14.17;;;9.60;99.90;;;;;;6246644;22;20011;-79
2023/03/20 07:57:40;;;;;;;18.80;12.90;;;9.60;99.90;;;;;;6247640;22;20331;-81
2023/03/20 08:00:07;;;;;;;25.73;13.20;;;9.60;99.90;;;;;;6246780;22;20012;-80
2023/03/20 08:02:33;;;;;;;18.00;13.05;;;9.50;99.90;;;;;;6272630;22;20085;-81
2023/03/20 08:04:59;;;;;;;19.80;12.82;;;9.50;99.90;;;;;;6222432;22;20513;-80
2023/03/20 08:07:24;;;;;;;20.63;12.85;;;9.70;99.90;;;;;;6222508;22;20012;-80
2023/03/20 08:09:51;;;;;;;21.10;13.77;;;9.50;99.90;;;;;;6222135;22;20014;-80
2023/03/20 08:12:17;;;;;;;22.88;14.45;;;9.60;99.90;;;;;;6221649;22;20008;-79
2023/03/20 08:14:43;;;;;;;18.58;13.18;;;9.70;99.90;;;;;;6247682;22;20011;-80
2023/03/20 08:17:09;;;;;;;19.98;13.07;;;9.70;99.90;;;;;;6220720;22;20011;-80
2023/03/20 08:19:35;;;;;;;19.30;13.88;;;9.90;99.90;;;;;;6246676;22;20022;-80
2023/03/20 08:22:01;;;;;;;18.63;12.98;;;10.10;99.90;;;;;;6246906;22;20258;-80
2023/03/20 08:24:27;;;;;;;22.45;13.38;;;10.20;99.90;;;;;;6246580;22;20012;-81
2023/03/20 08:26:52;;;;;;;19.63;12.73;;;10.10;99.90;;;;;;6246409;22;20082;-80
2023/03/20 08:29:18;;;;;;;21.30;12.10;;;10.10;99.90;;;;;;6246973;22;20008;-80
2023/03/20 08:31:44;;;;;;;18.40;12.32;;;10.20;99.90;;;;;;6221403;22;20061;-80
2023/03/20 08:34:10;;;;;;;19.83;13.02;;;10.30;99.90;;;;;;6274912;22;20004;-81
2023/03/20 08:36:36;;;;;;;18.77;13.15;;;10.30;99.90;;;;;;6221544;22;20361;-81
2023/03/20 08:39:02;;;;;;;18.58;12.10;;;10.30;99.90;;;;;;6222084;22;20091;-80
2023/03/20 08:41:29;;;;;;;19.15;13.25;;;10.40;99.90;;;;;;6247980;22;20016;-80
2023/03/20 08:43:54;;;;;;;21.75;13.32;;;10.60;99.90;;;;;;6247602;22;20442;-79
2023/03/20 08:46:20;;;;;;;22.98;13.38;;;10.40;99.90;;;;;;6246247;22;20338;-80
2023/03/20 08:48:45;;;;;;;19.55;13.25;;;10.40;99.90;;;;;;6247056;22;20087;-80
2023/03/20 08:51:11;;;;;;;19.23;12.82;;;10.50;99.90;;;;;;6246470;22;20047;-79
2023/03/20 08:53:39;;;;;;;19.83;13.43;;;10.60;99.90;;;;;;6246377;22;20113;-80
2023/03/20 08:56:06;;;;;;;18.27;13.93;;;10.60;99.90;;;;;;6246911;22;20012;-80
2023/03/20 08:58:31;;;;;;;24.02;11.77;;;10.50;99.90;;;;;;6247165;22;20074;-81
2023/03/20 09:01:01;;;;;;;21.60;12.57;;;10.60;99.90;;;;;;6246373;22;20454;-80
2023/03/20 09:03:27;;;;;;;22.27;12.68;;;10.70;99.90;;;;;;6280213;22;20374;-81
2023/03/20 09:05:53;;;;;;;19.88;11.95;;;10.80;99.90;;;;;;6253775;22;20027;-80
2023/03/20 09:08:18;;;;;;;18.60;12.70;;;10.90;99.90;;;;;;6253663;22;20011;-80
2023/03/20 09:10:47;;;;;;;20.33;11.60;;;10.90;99.90;;;;;;6224019;22;20010;-81
2023/03/20 09:13:16;;;;;;;17.98;11.25;;;10.90;99.90;;;;;;6246569;22;20016;-80
2023/03/20 09:15:42;;;;;;;20.52;11.77;;;11.10;99.90;;;;;;6246208;22;20081;-81
2023/03/20 09:18:08;;;;;;;21.13;12.23;;;11.00;99.90;;;;;;6247008;22;20011;-80
2023/03/20 09:20:34;;;;;;;19.23;11.07;;;11.20;99.90;;;;;;6220835;22;20025;-80
2023/03/20 09:22:59;;;;;;;20.73;10.68;;;11.20;99.90;;;;;;6221247;22;20012;-80
2023/03/20 09:25:25;;;;;;;16.58;10.85;;;11.40;99.90;;;;;;6246906;22;20320;-81
2023/03/20 09:27:54;;;;;;;17.63;11.18;;;11.50;99.90;;;;;;6273661;22;20011;-81
2023/03/20 09:30:21;;;;;;;18.30;10.57;;;11.50;99.90;;;;;;6273952;22;20012;-81
2023/03/20 09:32:46;;;;;;;17.23;10.35;;;11.60;99.90;;;;;;6246771;22;20047;-82
2023/03/20 09:35:12;;;;;;;19.83;10.93;;;11.90;99.90;;;;;;6246954;22;20019;-80
2023/03/20 09:37:38;;;;;;;17.40;10.38;;;12.10;99.90;;;;;;6245856;22;20122;-81
2023/03/20 09:40:04;;;;;;;18.00;10.82;;;12.20;99.90;;;;;;6273952;22;20046;-81
2023/03/20 09:43:01;;;;;;;18.40;10.32;;;12.30;99.90;;;;;;6245953;22;20008;-82
2023/03/20 09:45:58;;;;;;;16.55;9.93;;;12.40;99.90;;;;;;6273655;22;20015;-81
2023/03/20 09:49:22;;;;;;;15.25;10.52;;;12.40;99.90;;;;;;6273555;22;20061;-81
2023/03/20 09:52:09;;;;;;;18.17;10.70;;;12.40;99.90;;;;;;6124374;23;20021;-82
2023/03/20 09:54:39;;;;;;;14.75;10.05;;;12.60;99.90;;;;;;6124902;23;20005;-81
2023/03/20 09:57:16;;;;;;;14.45;9.93;;;12.30;99.90;;;;;;6148852;23;20025;-81
2023/03/20 09:59:41;;;;;;;17.15;9.45;;;12.30;99.90;;;;;;6149111;23;20009;-80
2023/03/20 10:02:18;;;;;;;17.92;9.90;;;12.30;99.90;;;;;;6148869;23;20483;-80
2023/03/20 10:04:47;;;;;;;18.58;10.23;;;12.40;99.90;;;;;;6124570;23;20021;-80
2023/03/20 10:07:16;;;;;;;18.05;10.02;;;12.60;99.90;;;;;;6148826;23;20013;-81
2023/03/20 10:09:45;;;;;;;14.45;9.18;;;12.60;99.90;;;;;;6124895;23;20009;-81
2023/03/20 10:12:55;;;;;;;17.90;9.35;;;12.60;99.90;;;;;;6124252;23;20017;-81
2023/03/20 10:15:37;;;;;;;14.32;9.00;;;12.60;99.90;;;;;;6149977;23;20016;-81
2023/03/20 10:18:08;;;;;;;16.60;9.82;;;12.70;99.90;;;;;;6149239;23;20428;-82
2023/03/20 10:21:12;;;;;;;15.73;9.27;;;12.70;99.90;;;;;;6125323;23;20021;-81
2023/03/20 10:23:45;;;;;;;15.63;9.95;;;12.60;99.90;;;;;;6217100;22;20083;-80
2023/03/20 10:26:12;;;;;;;14.48;9.57;;;12.50;99.90;;;;;;6219938;22;20042;-80
2023/03/20 10:28:57;;;;;;;21.88;9.55;;;12.50;99.90;;;;;;6273715;22;20012;-81
2023/03/20 10:31:39;;;;;;;16.33;8.93;;;12.50;99.90;;;;;;6220550;22;20012;-81
2023/03/20 10:34:19;;;;;;;18.23;10.60;;;12.60;99.90;;;;;;6219952;22;20061;-81
2023/03/20 10:36:53;;;;;;;15.43;10.02;;;12.50;99.90;;;;;;6273478;22;20020;-80
2023/03/20 10:39:25;;;;;;;;;;;12.40;99.90;;;;;;6247185;22;20015;-81
2023/03/20 10:42:00;;;;;;;17.42;10.18;;;12.40;99.90;;;;;;6219936;22;20005;-80
2023/03/20 10:44:31;;;;;;;13.98;9.98;;;12.40;99.90;;;;;;6245858;22;20012;-81
2023/03/20 10:47:00;;;;;;;15.77;9.32;;;12.20;99.90;;;;;;6272764;22;20011;-80
2023/03/20 10:49:37;;;;;;;18.98;9.75;;;12.00;99.90;;;;;;6246101;22;20004;-80
2023/03/20 10:52:11;;;;;;;16.30;10.00;;;12.00;99.90;;;;;;6220500;22;20020;-81
2023/03/20 10:54:43;;;;;;;17.83;9.32;;;11.90;99.90;;;;;;6219793;22;20000;-81
2023/03/20 10:57:23;;;;;;;18.70;10.38;;;12.00;99.90;;;;;;6246441;22;20018;-80
2023/03/20 10:59:55;;;;;;;17.65;9.18;;;12.00;99.90;;;;;;6273352;22;20330;-80
2023/03/20 11:02:24;;;;;;;17.08;9.57;;;12.00;99.90;;;;;;6244966;22;20453;-78
2023/03/20 11:04:49;;;;;;;18.20;9.02;;;11.90;99.90;;;;;;6273053;22;20338;-80
2023/03/20 11:07:32;;;;;;;14.40;9.52;;;12.10;99.90;;;;;;6219842;22;20008;-81
2023/03/20 11:10:04;;;;;;;12.47;8.20;;;12.20;99.90;;;;;;6244675;22;20439;-80
2023/03/20 11:12:36;;;;;;;21.05;9.60;;;12.40;99.90;;;;;;6273496;22;20394;-83
2023/03/20 11:15:20;;;;;;;17.00;8.32;;;12.50;99.90;;;;;;6272069;22;20082;-83
2023/03/20 11:17:55;;;;;;;18.55;8.65;;;12.60;99.90;;;;;;6220588;22;20445;-81
2023/03/20 11:20:21;;;;;;;14.13;6.97;;;12.50;99.90;;;;;;6246310;22;20062;-80
2023/03/20 11:22:48;;;;;;;13.13;7.18;;;12.50;99.90;;;;;;6217425;22;20015;-81
2023/03/20 11:25:27;;;;;;;13.85;7.40;;;12.30;99.90;;;;;;6243916;22;20145;-81
2023/03/20 11:27:54;;;;;;;14.60;5.93;;;12.30;99.90;;;;;;6244128;22;20012;-82
2023/03/20 11:30:20;;;;;;;13.32;5.85;;;12.20;99.90;;;;;;6244469;22;20482;-81
2023/03/20 11:32:48;;;;;;;12.55;6.00;;;12.20;99.90;;;;;;6270387;22;20355;-81
2023/03/20 11:35:25;;;;;;;11.48;5.43;;;12.20;99.90;;;;;;6244494;22;20070;-81
2023/03/20 11:37:53;;;;;;;13.35;5.15;;;12.20;99.90;;;;;;6246506;22;20026;-81
2023/03/20 11:40:25;;;;;;;16.02;4.65;;;12.30;99.90;;;;;;6246096;22;20016;-81
2023/03/20 11:43:17;;;;;;;8.52;4.07;;;12.20;99.90;;;;;;6246189;22;20097;-82
2023/03/20 11:45:54;;;;;;;10.70;4.80;;;12.00;99.90;;;;;;6220856;22;20537;-81
2023/03/20 11:48:22;;;;;;;11.63;5.22;;;11.70;99.90;;;;;;6221729;22;20045;-80
2023/03/20 11:51:06;;;;;;;12.00;5.90;;;11.40;99.90;;;;;;6245476;22;20019;-81
2023/03/20 11:53:38;;;;;;;10.10;5.38;;;11.30;99.90;;;;;;6220061;22;20026;-81
2023/03/20 11:56:25;;;;;;;13.25;5.20;;;11.20;99.90;;;;;;6220314;22;20015;-81
2023/03/20 11:59:11;;;;;;;13.15;4.70;;;11.10;99.90;;;;;;6245363;22;20350;-81
2023/03/20 12:01:53;;;;;;;14.07;6.32;;;11.10;99.90;;;;;;6220876;22;20008;-80
2023/03/20 12:04:36;;;;;;;11.50;6.20;;;11.00;99.90;;;;;;6221454;22;20350;-81
2023/03/20 12:07:16;;;;;;;16.05;7.05;;;10.90;99.90;;;;;;6221196;22;20047;-80
2023/03/20 12:09:47;;;;;;;13.05;6.45;;;11.00;99.90;;;;;;6221289;22;20388;-80
2023/03/20 12:12:44;;;;;;;15.05;6.70;;;10.70;99.90;;;;;;6246105;22;20092;-81
2023/03/20 12:15:50;;;;;;;14.43;6.82;;;10.70;99.90;;;;;;6246185;22;20180;-81
2023/03/20 12:18:22;;;;;;;14.07;6.00;;;10.70;99.90;;;;;;6100395;23;20024;-80
2023/03/20 12:21:26;;;;;;;14.73;6.10;;;10.80;99.90;;;;;;6148694;23;20085;-81
2023/03/20 12:23:55;;;;;;;;;;;10.70;99.90;;;;;;6114313;23;20025;-80
2023/03/20 12:26:41;;;;;;;14.23;6.28;;;10.60;99.90;;;;;;6124159;23;19916;-81
2023/03/20 12:29:34;;;;;;;12.88;5.80;;;10.70;99.90;;;;;;6125090;23;20122;-82
2023/03/20 12:32:15;;;;;;;11.57;5.47;;;10.60;99.90;;;;;;6124451;23;20041;-80
2023/03/20 12:34:49;;;;;;;14.35;5.85;;;10.40;99.90;;;;;;6125569;23;20488;-80
2023/03/20 12:37:17;;;;;;;11.13;5.43;;;10.50;99.90;;;;;;6150312;23;20390;-79
2023/03/20 12:39:51;;;;;;;13.55;5.40;;;10.60;99.90;;;;;;6130485;23;20051;-80
2023/03/20 12:43:01;;;;;;;9.48;4.35;;;10.80;99.90;;;;;;6130830;23;20020;-81
2023/03/20 12:45:38;;;;;;;8.45;3.85;;;10.90;99.90;;;;;;6117601;23;20017;-81
2023/03/20 12:48:10;;;;;;;10.40;4.05;;;11.00;99.90;;;;;;6138776;22;20056;-82
2023/03/20 12:50:47;;;;;;;9.40;3.75;;;11.20;99.90;;;;;;6272429;22;20448;-81
2023/03/20 12:53:29;;;;;;;8.68;3.90;;;11.20;99.90;;;;;;6272675;22;20352;-80
2023/03/20 12:56:04;;;;;;;9.07;3.80;;;11.20;99.90;;;;;;6244566;22;20090;-80
2023/03/20 12:58:44;;;;;;;9.77;3.60;;;11.20;99.90;;;;;;6219821;22;20446;-80
2023/03/20 13:01:31;;;;;;;9.07;4.13;;;11.20;99.90;;;;;;6272114;22;20022;-81